臺中航空站 - ATIS

METAR RCMQ 191800Z 17007KT 9999 FEW010 SCT030 BKN060 25/22 Q1009 RMK A2981=

站台狀態:Online
最後更新:2024-04-20 02:00:05